createdAt,value
2022-09-25T00:02:44.455Z,100.00
2022-09-25T00:07:45.910Z,100.00
2022-09-25T00:12:47.315Z,100.00
2022-09-25T00:17:49.027Z,100.00
2022-09-25T00:22:50.849Z,100.00
2022-09-25T00:27:53.230Z,100.00
2022-09-25T00:32:54.600Z,100.00
2022-09-25T00:37:55.994Z,100.00
2022-09-25T00:42:57.372Z,100.00
2022-09-25T00:48:03.224Z,100.00
2022-09-25T00:53:10.408Z,100.00
2022-09-25T00:58:15.288Z,100.00
2022-09-25T01:03:17.476Z,100.00
2022-09-25T01:08:23.490Z,100.00
2022-09-25T01:13:25.717Z,100.00
2022-09-25T01:18:42.601Z,100.00
2022-09-25T01:24:10.953Z,100.00
2022-09-25T01:29:49.325Z,100.00
2022-09-25T01:35:00.761Z,100.00
2022-09-25T01:40:10.205Z,100.00
2022-09-25T01:45:38.738Z,100.00
2022-09-25T01:50:50.482Z,100.00
2022-09-25T01:55:58.124Z,100.00
2022-09-25T02:01:06.530Z,100.00
2022-09-25T02:06:12.828Z,100.00
2022-09-25T02:11:14.443Z,100.00
2022-09-25T02:16:44.536Z,100.00
2022-09-25T02:22:08.436Z,100.00
2022-09-25T02:27:09.896Z,100.00
2022-09-25T02:32:18.961Z,100.00
2022-09-25T02:37:20.355Z,100.00
2022-09-25T02:42:40.627Z,100.00
2022-09-25T02:48:09.304Z,100.00
2022-09-25T02:53:21.211Z,100.00
2022-09-25T02:58:41.388Z,100.00
2022-09-25T03:03:45.881Z,100.00
2022-09-25T03:08:52.992Z,100.00
2022-09-25T03:14:02.831Z,100.00
2022-09-25T03:19:04.265Z,100.00
2022-09-25T03:24:06.244Z,100.00
2022-09-25T03:29:07.946Z,100.00
2022-09-25T03:34:12.178Z,100.00
2022-09-25T03:39:17.669Z,100.00
2022-09-25T03:44:19.096Z,100.00
2022-09-25T03:49:20.581Z,100.00
2022-09-25T03:54:22.020Z,100.00
2022-09-25T03:59:23.875Z,100.00
2022-09-25T04:04:25.361Z,100.00
2022-09-25T04:09:26.816Z,100.00
2022-09-25T04:14:28.240Z,100.00
2022-09-25T04:19:29.671Z,100.00
2022-09-25T04:24:49.035Z,100.00
2022-09-25T04:29:50.512Z,100.00
2022-09-25T04:34:51.990Z,100.00
2022-09-25T04:39:58.241Z,100.00
2022-09-25T04:44:59.991Z,100.00
2022-09-25T04:50:01.688Z,100.00
2022-09-25T04:55:04.350Z,100.00
2022-09-25T05:00:06.796Z,100.00
2022-09-25T05:05:08.733Z,100.00
2022-09-25T05:10:10.295Z,100.00
2022-09-25T05:15:11.686Z,100.00
2022-09-25T05:20:13.214Z,100.00
2022-09-25T05:25:14.770Z,100.00
2022-09-25T05:30:16.906Z,100.00
2022-09-25T05:35:23.594Z,100.00
2022-09-25T05:40:25.481Z,100.00
2022-09-25T05:45:27.095Z,100.00
2022-09-25T05:50:28.947Z,100.00
2022-09-25T05:55:30.978Z,100.00
2022-09-25T06:00:33.275Z,100.00
2022-09-25T06:05:34.970Z,100.00
2022-09-25T06:10:36.513Z,100.00
2022-09-25T06:15:41.745Z,100.00
2022-09-25T06:20:43.404Z,100.00
2022-09-25T06:25:45.473Z,100.00
2022-09-25T06:30:47.870Z,100.00
2022-09-25T06:35:50.395Z,100.00
2022-09-25T06:40:51.961Z,100.00
2022-09-25T06:45:53.567Z,100.00
2022-09-25T06:50:57.172Z,100.00
2022-09-25T06:55:59.921Z,100.00
2022-09-25T07:01:06.313Z,100.00
2022-09-25T07:06:22.082Z,100.00
2022-09-25T07:11:27.358Z,100.00
2022-09-25T07:16:30.990Z,100.00
2022-09-25T07:21:32.709Z,100.00
2022-09-25T07:26:34.911Z,100.00
2022-09-25T07:31:38.264Z,100.00
2022-09-25T07:36:42.868Z,100.00
2022-09-25T07:41:44.413Z,100.00
2022-09-25T07:46:46.376Z,100.00
2022-09-25T07:51:48.044Z,99.73
2022-09-25T07:56:49.511Z,99.08
2022-09-25T08:01:53.890Z,98.04
2022-09-25T08:06:57.994Z,98.42
2022-09-25T08:11:59.547Z,97.73
2022-09-25T08:17:01.869Z,97.44
2022-09-25T08:22:03.630Z,96.26
2022-09-25T08:27:07.747Z,95.10
2022-09-25T08:32:09.584Z,94.57
2022-09-25T08:37:11.135Z,95.07
2022-09-25T08:42:25.108Z,95.18
2022-09-25T08:47:47.839Z,94.19
2022-09-25T08:52:55.143Z,94.52
2022-09-25T08:57:56.644Z,94.57
2022-09-25T09:02:58.839Z,94.05
2022-09-25T09:08:15.597Z,93.21
2022-09-25T09:13:44.647Z,93.89
2022-09-25T09:18:46.466Z,93.17
2022-09-25T09:24:08.633Z,92.97
2022-09-25T09:29:30.687Z,91.54
2022-09-25T09:35:06.305Z,91.53
2022-09-25T09:40:36.591Z,90.62
2022-09-25T09:45:53.139Z,86.65
2022-09-25T09:51:01.642Z,83.55
2022-09-25T09:56:18.889Z,81.41
2022-09-25T10:01:42.066Z,77.85
2022-09-25T10:06:53.929Z,73.35
2022-09-25T10:12:14.727Z,69.58
2022-09-25T10:17:18.381Z,69.60
2022-09-25T10:22:24.527Z,69.67
2022-09-25T10:27:30.379Z,67.08
2022-09-25T10:32:42.704Z,65.86
2022-09-25T10:37:44.827Z,62.06
2022-09-25T10:42:46.524Z,62.87
2022-09-25T10:48:09.030Z,65.48
2022-09-25T10:53:29.028Z,67.20
2022-09-25T10:58:41.301Z,69.22
2022-09-25T11:03:58.373Z,71.18
2022-09-25T11:09:13.972Z,72.46
2022-09-25T11:14:33.335Z,74.73
2022-09-25T11:19:37.430Z,77.66
2022-09-25T11:25:01.224Z,80.40
2022-09-25T11:30:13.066Z,80.66
2022-09-25T11:35:26.949Z,81.77
2022-09-25T11:40:59.316Z,82.51
2022-09-25T11:46:11.134Z,83.14
2022-09-25T11:51:53.045Z,83.86
2022-09-25T11:57:04.217Z,84.29
2022-09-25T12:02:30.830Z,85.37
2022-09-25T12:07:42.617Z,84.48
2022-09-25T12:12:59.445Z,84.52
2022-09-25T12:18:15.538Z,83.27
2022-09-25T12:23:36.951Z,82.65
2022-09-25T12:28:52.368Z,82.59
2022-09-25T12:34:09.241Z,81.13
2022-09-25T12:39:37.306Z,81.98
2022-09-25T12:44:53.107Z,82.63
2022-09-25T12:50:28.820Z,83.44
2022-09-25T12:55:40.963Z,83.20
2022-09-25T13:00:44.191Z,82.75
2022-09-25T13:05:52.234Z,82.06
2022-09-25T13:11:02.035Z,81.51
2022-09-25T13:16:03.737Z,80.71
2022-09-25T13:21:36.844Z,80.37
2022-09-25T13:26:53.534Z,80.55
2022-09-25T13:32:06.723Z,81.01
2022-09-25T13:37:11.631Z,80.77
2022-09-25T13:42:30.997Z,81.47
2022-09-25T13:47:43.001Z,81.86
2022-09-25T13:52:47.189Z,82.26
2022-09-25T13:58:01.480Z,81.85
2022-09-25T14:03:03.961Z,82.64
2022-09-25T14:08:12.610Z,83.22
2022-09-25T14:13:17.649Z,83.17
2022-09-25T14:18:32.915Z,83.94
2022-09-25T14:23:34.395Z,83.55
2022-09-25T14:28:47.002Z,83.65
2022-09-25T14:34:07.097Z,84.30
2022-09-25T14:39:40.696Z,85.70
2022-09-25T14:45:02.580Z,85.96
2022-09-25T14:50:05.610Z,84.69
2022-09-25T14:55:07.553Z,85.05
2022-09-25T15:00:16.529Z,85.97
2022-09-25T15:05:17.999Z,86.17
2022-09-25T15:10:36.485Z,86.04
2022-09-25T15:15:40.151Z,84.78
2022-09-25T15:20:47.526Z,84.93
2022-09-25T15:25:52.961Z,85.76
2022-09-25T15:30:59.686Z,87.07
2022-09-25T15:36:20.231Z,87.38
2022-09-25T15:41:23.752Z,87.81
2022-09-25T15:46:37.252Z,88.05
2022-09-25T15:51:38.788Z,88.39
2022-09-25T15:56:51.001Z,88.65
2022-09-25T16:02:11.815Z,87.79
2022-09-25T16:07:33.958Z,89.67
2022-09-25T16:12:50.460Z,89.56
2022-09-25T16:18:00.144Z,90.06
2022-09-25T16:23:16.762Z,92.10
2022-09-25T16:28:22.984Z,92.94
2022-09-25T16:33:31.307Z,94.08
2022-09-25T16:38:35.896Z,95.98
2022-09-25T16:43:39.438Z,96.13
2022-09-25T16:48:44.705Z,96.86
2022-09-25T16:53:46.539Z,97.57
2022-09-25T16:58:49.450Z,97.48
2022-09-25T17:03:51.463Z,96.92
2022-09-25T17:08:53.250Z,97.80
2022-09-25T17:13:55.100Z,97.54
2022-09-25T17:19:01.232Z,97.69
2022-09-25T17:24:03.098Z,97.52
2022-09-25T17:29:05.534Z,98.06
2022-09-25T17:34:17.180Z,98.46
2022-09-25T17:39:18.666Z,97.95
2022-09-25T17:44:23.394Z,98.04
2022-09-25T17:49:25.568Z,98.01
2022-09-25T17:54:29.944Z,97.91
2022-09-25T17:59:31.415Z,97.90
2022-09-25T18:04:32.973Z,97.99
2022-09-25T18:09:34.462Z,98.87
2022-09-25T18:14:35.983Z,99.19
2022-09-25T18:19:55.751Z,100.00
2022-09-25T18:24:57.453Z,100.00
2022-09-25T18:29:59.074Z,100.00
2022-09-25T18:35:02.455Z,100.00
2022-09-25T18:40:04.561Z,100.00
2022-09-25T18:45:06.969Z,100.00
2022-09-25T18:50:10.313Z,100.00
2022-09-25T18:55:12.442Z,100.00
2022-09-25T19:00:14.326Z,100.00
2022-09-25T19:05:17.529Z,100.00
2022-09-25T19:10:19.108Z,100.00
2022-09-25T19:15:20.545Z,100.00
2022-09-25T19:20:22.033Z,100.00
2022-09-25T19:25:23.511Z,100.00
2022-09-25T19:30:25.012Z,100.00
2022-09-25T19:35:26.889Z,100.00
2022-09-25T19:40:37.543Z,100.00
2022-09-25T19:45:39.084Z,100.00
2022-09-25T19:50:41.691Z,100.00
2022-09-25T19:55:43.374Z,100.00
2022-09-25T20:00:45.154Z,100.00
2022-09-25T20:05:48.908Z,100.00
2022-09-25T20:10:50.348Z,100.00
2022-09-25T20:15:52.088Z,100.00
2022-09-25T20:20:53.571Z,100.00
2022-09-25T20:25:55.467Z,100.00
2022-09-25T20:30:56.955Z,100.00
2022-09-25T20:36:05.580Z,100.00
2022-09-25T20:41:11.189Z,100.00
2022-09-25T20:46:13.702Z,100.00
2022-09-25T20:51:17.675Z,100.00
2022-09-25T20:56:19.796Z,100.00
2022-09-25T21:01:23.504Z,100.00
2022-09-25T21:06:27.868Z,100.00
2022-09-25T21:11:32.041Z,100.00
2022-09-25T21:16:33.936Z,100.00
2022-09-25T21:21:35.828Z,100.00
2022-09-25T21:26:37.274Z,100.00
2022-09-25T21:31:43.784Z,100.00
2022-09-25T21:36:48.570Z,100.00
2022-09-25T21:41:50.268Z,100.00
2022-09-25T21:46:52.065Z,100.00
2022-09-25T21:51:53.573Z,100.00
2022-09-25T21:56:55.035Z,100.00
2022-09-25T22:01:58.542Z,100.00
2022-09-25T22:07:00.045Z,100.00
2022-09-25T22:12:01.708Z,100.00
2022-09-25T22:17:03.225Z,100.00
2022-09-25T22:22:04.844Z,100.00
2022-09-25T22:27:06.394Z,100.00
2022-09-25T22:32:07.902Z,100.00
2022-09-25T22:37:09.457Z,100.00
2022-09-25T22:42:10.987Z,100.00
2022-09-25T22:47:12.512Z,100.00
2022-09-25T22:52:14.807Z,100.00
2022-09-25T22:57:16.400Z,100.00
2022-09-25T23:02:17.854Z,100.00
2022-09-25T23:07:19.365Z,100.00
2022-09-25T23:12:20.992Z,100.00
2022-09-25T23:17:22.531Z,100.00
2022-09-25T23:22:23.977Z,100.00
2022-09-25T23:27:25.449Z,100.00
2022-09-25T23:32:26.933Z,100.00
2022-09-25T23:37:29.196Z,100.00
2022-09-25T23:42:30.697Z,100.00
2022-09-25T23:47:32.373Z,100.00
2022-09-25T23:52:35.203Z,100.00
2022-09-25T23:57:37.874Z,100.00
